logo tempoitalia

Diretta Meteo Needles, Stati Uniti (USA)domenica 30 agosto ore 22:56

Mappa
Sereno 32 °C Sereno 24 Ore: T.min 31 T.max 42
Ponente Ovest/Sud-Ovest Km/h 11.1 Punto di rugiada: 17 °C Umidità: 40% Visibilità: 10 Km
Il sole sorge alle: 06:10 Il sole tramonta alle: 19:07
30 Agosto 2026 22:56 tempo osservato: Sereno Sereno 32 40 1008 vento: Nord O/SO 11.1
30 Agosto 2026 21:56 tempo osservato: Sereno Sereno 32 40 1008 vento: Nord O/SO 11.1
30 Agosto 2026 20:56 tempo osservato: Sereno Sereno 31 43 1008 vento: Nord E 18.5
30 Agosto 2026 19:56 tempo osservato: Sereno Sereno 33 41 1007 vento: Nord E/SE 27.8
30 Agosto 2026 18:56 tempo osservato: Sereno Sereno 40 14 1005 vento: Nord SO 18.5
30 Agosto 2026 17:56 tempo osservato: Sereno Sereno 41 13 1006 vento: Nord SO 24
30 Agosto 2026 16:56 tempo osservato: Sereno Sereno 42 14 1006 vento: Nord S/SO 16.7
30 Agosto 2026 15:56 tempo osservato: Sereno Sereno 42 14 1006 vento: Nord S 24
30 Agosto 2026 14:56 tempo osservato: Sereno Sereno 42 14 1007 vento: Nord S 33.3
30 Agosto 2026 13:56 tempo osservato: Sereno Sereno 42 14 1008 vento: Nord S 31.5
30 Agosto 2026 12:56 tempo osservato: Sereno Sereno 41 16 1009 vento: Nord S/SE 27.8
30 Agosto 2026 11:56 tempo osservato: Sereno Sereno 40 17 1010 vento: Nord S 20.3
30 Agosto 2026 10:56 tempo osservato: Sereno Sereno 39 18 1010 vento: Nord S 14.8
30 Agosto 2026 09:56 tempo osservato: Sereno Sereno 38 21 1010 vento: Nord N 5.5
30 Agosto 2026 08:56 tempo osservato: Sereno Sereno 37 22 1010 vento: Nord S 14.8
30 Agosto 2026 07:56 tempo osservato: Sereno Sereno 36 20 1010 vento: Nord O/SO 13
30 Agosto 2026 06:56 tempo osservato: Sereno Sereno 32 27 1010 vento: Nord N 5.5
30 Agosto 2026 05:56 tempo osservato: Sereno Sereno 32 27 1009 vento: Nord N 0
30 Agosto 2026 04:56 tempo osservato: Sereno Sereno 33 26 1008 vento: Nord N 0
30 Agosto 2026 03:56 tempo osservato: Sereno Sereno 32 27 1008 vento: Nord N 5.5
30 Agosto 2026 02:56 tempo osservato: Sereno Sereno 33 26 1007 vento: Nord SO 14.8
30 Agosto 2026 01:56 tempo osservato: Sereno Sereno 35 23 1007 vento: Nord N 5.5
30 Agosto 2026 00:56 tempo osservato: Sereno Sereno 36 22 1007 vento: Nord O 13
29 Agosto 2026 23:56 tempo osservato: Sereno Sereno 37 20 1007 vento: Nord O/NO 9.3